Troy, Idaho
Current Conditions -  °F | °C
As of 8:53 AM on Friday 28 Nov 2014 (Local Time) from KPUW Reporting Station
Overcast Overcast  
Wind Chill: 52°   Ceiling: 4500
Heat Index: 52°   Visibility: 10mi
Dew Point: 43°   Wind: 17mph
Humidity: 71%   Direction: 210°SSW
Pressure: 29.61"   Gusts: NA
Location:  46.74°N, 116.77°W
Report Text: KPUW 281653Z AUTO 21015KT 10SM BKN045 OVC050 11/06 A2961 RMK AO2 SLP028 T01110061
Loading
Personal Weather Stations






























Interactive Weather Map New forecast layout! Learn more

10-Day Weather Forecast

Advertisements
Track Severe Weather on mobile